sensor_id;sensor_type;location;lat;lon;timestamp;pressure;altitude;pressure_sealevel;temperature;humidity
11036;BME280;5571;48.110;-1.706;2022-10-16T00:01:06;100737.09;;;14.45;100.00
11036;BME280;5571;48.110;-1.706;2022-10-16T00:03:31;100733.06;;;14.40;100.00
11036;BME280;5571;48.110;-1.706;2022-10-16T00:05:59;100732.50;;;14.34;100.00
11036;BME280;5571;48.110;-1.706;2022-10-16T00:08:25;100731.97;;;14.29;100.00
11036;BME280;5571;48.110;-1.706;2022-10-16T00:10:51;100737.78;;;14.34;100.00
11036;BME280;5571;48.110;-1.706;2022-10-16T00:13:16;100728.38;;;14.30;100.00
11036;BME280;5571;48.110;-1.706;2022-10-16T00:15:43;100732.44;;;14.36;100.00
11036;BME280;5571;48.110;-1.706;2022-10-16T00:18:09;100735.13;;;14.34;100.00
11036;BME280;5571;48.110;-1.706;2022-10-16T00:20:35;100727.22;;;14.34;100.00
11036;BME280;5571;48.110;-1.706;2022-10-16T00:23:02;100736.22;;;14.32;100.00
11036;BME280;5571;48.110;-1.706;2022-10-16T00:25:28;100733.66;;;14.30;100.00
11036;BME280;5571;48.110;-1.706;2022-10-16T00:27:54;100737.78;;;14.34;100.00
11036;BME280;5571;48.110;-1.706;2022-10-16T00:30:19;100725.09;;;14.27;100.00
11036;BME280;5571;48.110;-1.706;2022-10-16T00:32:45;100740.66;;;14.31;100.00
11036;BME280;5571;48.110;-1.706;2022-10-16T00:35:10;100745.19;;;14.29;100.00
11036;BME280;5571;48.110;-1.706;2022-10-16T00:37:35;100738.00;;;14.31;100.00
11036;BME280;5571;48.110;-1.706;2022-10-16T00:40:01;100736.72;;;14.24;100.00
11036;BME280;5571;48.110;-1.706;2022-10-16T00:42:26;100742.22;;;14.34;100.00
11036;BME280;5571;48.110;-1.706;2022-10-16T00:44:54;100732.59;;;14.33;100.00
11036;BME280;5571;48.110;-1.706;2022-10-16T00:47:34;100736.53;;;14.27;100.00
11036;BME280;5571;48.110;-1.706;2022-10-16T00:50:52;100743.28;;;14.31;100.00
11036;BME280;5571;48.110;-1.706;2022-10-16T00:53:00;100735.22;;;14.33;100.00
11036;BME280;5571;48.110;-1.706;2022-10-16T00:55:27;100738.34;;;14.40;100.00
11036;BME280;5571;48.110;-1.706;2022-10-16T00:57:55;100736.56;;;14.40;100.00
11036;BME280;5571;48.110;-1.706;2022-10-16T01:00:26;100737.94;;;14.46;100.00
11036;BME280;5571;48.110;-1.706;2022-10-16T01:02:55;100737.09;;;14.45;100.00
11036;BME280;5571;48.110;-1.706;2022-10-16T01:05:24;100740.91;;;14.41;100.00
11036;BME280;5571;48.110;-1.706;2022-10-16T01:10:52;100743.28;;;14.31;100.00
11036;BME280;5571;48.110;-1.706;2022-10-16T01:13:24;100733.34;;;14.35;100.00
11036;BME280;5571;48.110;-1.706;2022-10-16T01:15:56;100736.56;;;14.40;100.00
11036;BME280;5571;48.110;-1.706;2022-10-16T01:18:46;100739.50;;;14.36;100.00
11036;BME280;5571;48.110;-1.706;2022-10-16T01:21:17;100740.53;;;14.33;100.00
11036;BME280;5571;48.110;-1.706;2022-10-16T01:24:01;100737.72;;;14.36;100.00
11036;BME280;5571;48.110;-1.706;2022-10-16T01:29:04;100739.41;;;14.37;100.00
11036;BME280;5571;48.110;-1.706;2022-10-16T01:31:35;100745.72;;;14.34;100.00
11036;BME280;5571;48.110;-1.706;2022-10-16T01:34:38;100746.28;;;14.40;100.00
11036;BME280;5571;48.110;-1.706;2022-10-16T01:37:05;100750.94;;;14.36;100.00
11036;BME280;5571;48.110;-1.706;2022-10-16T01:39:35;100746.50;;;14.37;100.00
11036;BME280;5571;48.110;-1.706;2022-10-16T01:42:08;100753.91;;;14.44;100.00
11036;BME280;5571;48.110;-1.706;2022-10-16T01:44:35;100750.63;;;14.41;100.00
11036;BME280;5571;48.110;-1.706;2022-10-16T01:47:03;100755.38;;;14.36;100.00
11036;BME280;5571;48.110;-1.706;2022-10-16T01:49:34;100756.94;;;14.38;100.00
11036;BME280;5571;48.110;-1.706;2022-10-16T01:52:05;100754.97;;;14.42;100.00
11036;BME280;5571;48.110;-1.706;2022-10-16T01:54:33;100753.03;;;14.44;100.00
11036;BME280;5571;48.110;-1.706;2022-10-16T01:57:01;100751.25;;;14.44;100.00
11036;BME280;5571;48.110;-1.706;2022-10-16T01:59:30;100753.91;;;14.44;100.00
11036;BME280;5571;48.110;-1.706;2022-10-16T02:02:00;100751.03;;;14.47;100.00
11036;BME280;5571;48.110;-1.706;2022-10-16T02:04:30;100752.41;;;14.40;100.00
11036;BME280;5571;48.110;-1.706;2022-10-16T02:06:58;100754.22;;;14.40;100.00
11036;BME280;5571;48.110;-1.706;2022-10-16T02:09:23;100754.50;;;14.35;100.00
11036;BME280;5571;48.110;-1.706;2022-10-16T02:11:51;100755.28;;;14.37;100.00
11036;BME280;5571;48.110;-1.706;2022-10-16T02:14:19;100753.34;;;14.39;100.00
11036;BME280;5571;48.110;-1.706;2022-10-16T02:16:46;100758.88;;;14.36;100.00
11036;BME280;5571;48.110;-1.706;2022-10-16T02:19:13;100757.13;;;14.35;100.00
11036;BME280;5571;48.110;-1.706;2022-10-16T02:21:49;100748.34;;;14.34;100.00
11036;BME280;5571;48.110;-1.706;2022-10-16T02:29:45;100743.84;;;14.37;100.00
11036;BME280;5571;48.110;-1.706;2022-10-16T02:32:17;100747.50;;;14.34;100.00
11036;BME280;5571;48.110;-1.706;2022-10-16T02:34:45;100745.53;;;14.38;100.00
11036;BME280;5571;48.110;-1.706;2022-10-16T02:37:12;100747.97;;;14.41;100.00
11036;BME280;5571;48.110;-1.706;2022-10-16T02:39:38;100748.91;;;14.40;100.00
11036;BME280;5571;48.110;-1.706;2022-10-16T02:42:10;100742.88;;;14.38;100.00
11036;BME280;5571;48.110;-1.706;2022-10-16T02:44:36;100747.22;;;14.39;100.00
11036;BME280;5571;48.110;-1.706;2022-10-16T02:47:01;100747.97;;;14.41;100.00
11036;BME280;5571;48.110;-1.706;2022-10-16T02:49:27;100744.72;;;14.37;100.00
11036;BME280;5571;48.110;-1.706;2022-10-16T02:51:52;100751.56;;;14.40;100.00
11036;BME280;5571;48.110;-1.706;2022-10-16T02:54:18;100760.34;;;14.40;100.00
11036;BME280;5571;48.110;-1.706;2022-10-16T02:56:43;100753.13;;;14.42;100.00
11036;BME280;5571;48.110;-1.706;2022-10-16T02:59:08;100757.47;;;14.43;100.00
11036;BME280;5571;48.110;-1.706;2022-10-16T03:01:34;100761.81;;;14.44;100.00
11036;BME280;5571;48.110;-1.706;2022-10-16T03:03:59;100760.44;;;14.39;100.00
11036;BME280;5571;48.110;-1.706;2022-10-16T03:06:24;100756.00;;;14.39;100.00
11036;BME280;5571;48.110;-1.706;2022-10-16T03:08:50;100761.38;;;14.38;100.00
11036;BME280;5571;48.110;-1.706;2022-10-16T03:11:15;100754.50;;;14.35;100.00
11036;BME280;5571;48.110;-1.706;2022-10-16T03:13:40;100772.47;;;14.30;100.00
11036;BME280;5571;48.110;-1.706;2022-10-16T03:16:06;100765.47;;;14.29;100.00
11036;BME280;5571;48.110;-1.706;2022-10-16T03:18:31;100765.06;;;14.22;100.00
11036;BME280;5571;48.110;-1.706;2022-10-16T03:20:56;100764.13;;;14.23;100.00
11036;BME280;5571;48.110;-1.706;2022-10-16T03:23:22;100762.84;;;14.16;100.00
11036;BME280;5571;48.110;-1.706;2022-10-16T03:25:47;100767.41;;;14.14;100.00
11036;BME280;5571;48.110;-1.706;2022-10-16T03:28:12;100768.97;;;14.17;100.00
11036;BME280;5571;48.110;-1.706;2022-10-16T03:30:38;100760.31;;;14.15;100.00
11036;BME280;5571;48.110;-1.706;2022-10-16T03:33:05;100761.56;;;14.09;100.00
11036;BME280;5571;48.110;-1.706;2022-10-16T03:35:32;100766.72;;;14.11;100.00
11036;BME280;5571;48.110;-1.706;2022-10-16T03:37:58;100771.81;;;14.14;100.00
11036;BME280;5571;48.110;-1.706;2022-10-16T03:40:23;100766.22;;;14.18;100.00
11036;BME280;5571;48.110;-1.706;2022-10-16T03:42:48;100767.28;;;14.16;100.00
11036;BME280;5571;48.110;-1.706;2022-10-16T03:45:14;100755.97;;;14.14;100.00
11036;BME280;5571;48.110;-1.706;2022-10-16T03:47:39;100765.06;;;14.10;100.00
11036;BME280;5571;48.110;-1.706;2022-10-16T03:50:05;100762.59;;;14.07;100.00
11036;BME280;5571;48.110;-1.706;2022-10-16T03:52:30;100762.19;;;14.13;100.00
11036;BME280;5571;48.110;-1.706;2022-10-16T03:54:57;100757.84;;;14.12;100.00
11036;BME280;5571;48.110;-1.706;2022-10-16T03:57:22;100758.72;;;14.12;100.00
11036;BME280;5571;48.110;-1.706;2022-10-16T03:59:48;100759.56;;;14.13;100.00
11036;BME280;5571;48.110;-1.706;2022-10-16T04:02:13;100778.59;;;14.18;100.00
11036;BME280;5571;48.110;-1.706;2022-10-16T04:04:39;100774.56;;;14.12;100.00
11036;BME280;5571;48.110;-1.706;2022-10-16T04:07:04;100771.69;;;14.15;100.00
11036;BME280;5571;48.110;-1.706;2022-10-16T04:09:29;100782.19;;;14.17;100.00
11036;BME280;5571;48.110;-1.706;2022-10-16T04:11:55;100773.00;;;14.22;100.00
11036;BME280;5571;48.110;-1.706;2022-10-16T04:14:20;100776.69;;;14.20;100.00
11036;BME280;5571;48.110;-1.706;2022-10-16T04:16:46;100778.06;;;14.25;100.00
11036;BME280;5571;48.110;-1.706;2022-10-16T04:19:11;100778.59;;;14.30;100.00
11036;BME280;5571;48.110;-1.706;2022-10-16T04:21:37;100782.94;;;14.31;100.00
11036;BME280;5571;48.110;-1.706;2022-10-16T04:24:03;100769.81;;;14.30;100.00
11036;BME280;5571;48.110;-1.706;2022-10-16T04:26:29;100775.72;;;14.33;100.00
11036;BME280;5571;48.110;-1.706;2022-10-16T04:28:54;100775.63;;;14.35;100.00
11036;BME280;5571;48.110;-1.706;2022-10-16T04:31:20;100772.09;;;14.36;100.00
11036;BME280;5571;48.110;-1.706;2022-10-16T04:33:45;100774.50;;;14.39;100.00
11036;BME280;5571;48.110;-1.706;2022-10-16T04:36:11;100766.56;;;14.39;100.00
11036;BME280;5571;48.110;-1.706;2022-10-16T04:38:36;100773.47;;;14.42;100.00
11036;BME280;5571;48.110;-1.706;2022-10-16T04:41:03;100763.63;;;14.44;100.00
11036;BME280;5571;48.110;-1.706;2022-10-16T04:43:28;100772.41;;;14.44;100.00
11036;BME280;5571;48.110;-1.706;2022-10-16T04:45:54;100776.63;;;14.47;100.00
11036;BME280;5571;48.110;-1.706;2022-10-16T04:48:20;100773.88;;;14.48;100.00
11036;BME280;5571;48.110;-1.706;2022-10-16T04:50:45;100783.38;;;14.51;100.00
11036;BME280;5571;48.110;-1.706;2022-10-16T04:53:11;100785.06;;;14.52;100.00
11036;BME280;5571;48.110;-1.706;2022-10-16T04:55:36;100793.75;;;14.54;100.00
11036;BME280;5571;48.110;-1.706;2022-10-16T04:58:03;100798.94;;;14.55;100.00
11036;BME280;5571;48.110;-1.706;2022-10-16T05:00:28;100790.81;;;14.58;100.00
11036;BME280;5571;48.110;-1.706;2022-10-16T05:02:54;100789.72;;;14.61;100.00
11036;BME280;5571;48.110;-1.706;2022-10-16T05:05:19;100809.94;;;14.62;100.00
11036;BME280;5571;48.110;-1.706;2022-10-16T05:07:46;100801.91;;;14.63;100.00
11036;BME280;5571;48.110;-1.706;2022-10-16T05:10:11;100807.06;;;14.65;100.00
11036;BME280;5571;48.110;-1.706;2022-10-16T05:12:36;100795.56;;;14.66;100.00
11036;BME280;5571;48.110;-1.706;2022-10-16T05:15:03;100798.09;;;14.67;100.00
11036;BME280;5571;48.110;-1.706;2022-10-16T05:17:28;100791.72;;;14.70;100.00
11036;BME280;5571;48.110;-1.706;2022-10-16T05:19:54;100791.63;;;14.71;100.00
11036;BME280;5571;48.110;-1.706;2022-10-16T05:22:19;100796.94;;;14.71;100.00
11036;BME280;5571;48.110;-1.706;2022-10-16T05:24:45;100795.84;;;14.74;100.00
11036;BME280;5571;48.110;-1.706;2022-10-16T05:27:10;100793.97;;;14.76;100.00
11036;BME280;5571;48.110;-1.706;2022-10-16T05:29:36;100792.16;;;14.76;100.00
11036;BME280;5571;48.110;-1.706;2022-10-16T05:32:02;100797.31;;;14.78;100.00
11036;BME280;5571;48.110;-1.706;2022-10-16T05:34:27;100794.69;;;14.78;100.00
11036;BME280;5571;48.110;-1.706;2022-10-16T05:36:52;100802.53;;;14.79;100.00
11036;BME280;5571;48.110;-1.706;2022-10-16T05:39:18;100802.53;;;14.79;100.00
11036;BME280;5571;48.110;-1.706;2022-10-16T05:41:44;100798.94;;;14.81;100.00
11036;BME280;5571;48.110;-1.706;2022-10-16T05:44:09;100799.66;;;14.83;100.00
11036;BME280;5571;48.110;-1.706;2022-10-16T05:46:35;100799.66;;;14.83;100.00
11036;BME280;5571;48.110;-1.706;2022-10-16T05:49:00;100803.03;;;14.85;100.00
11036;BME280;5571;48.110;-1.706;2022-10-16T05:51:26;100788.88;;;14.86;100.00
11036;BME280;5571;48.110;-1.706;2022-10-16T05:53:52;100792.25;;;14.88;100.00
11036;BME280;5571;48.110;-1.706;2022-10-16T05:56:17;100786.00;;;14.89;100.00
11036;BME280;5571;48.110;-1.706;2022-10-16T05:58:43;100784.22;;;14.89;100.00
11036;BME280;5571;48.110;-1.706;2022-10-16T06:01:17;100782.50;;;14.88;100.00
11036;BME280;5571;48.110;-1.706;2022-10-16T06:03:44;100767.72;;;14.86;100.00
11036;BME280;5571;48.110;-1.706;2022-10-16T06:06:14;100770.34;;;14.86;100.00
11036;BME280;5571;48.110;-1.706;2022-10-16T06:08:41;100764.31;;;14.84;100.00
11036;BME280;5571;48.110;-1.706;2022-10-16T06:11:08;100768.03;;;14.81;100.00
11036;BME280;5571;48.110;-1.706;2022-10-16T06:13:34;100765.38;;;14.81;100.00
11036;BME280;5571;48.110;-1.706;2022-10-16T06:16:00;100760.94;;;14.82;100.00
11036;BME280;5571;48.110;-1.706;2022-10-16T06:18:27;100756.59;;;14.81;100.00
11036;BME280;5571;48.110;-1.706;2022-10-16T06:20:53;100770.56;;;14.83;100.00
11036;BME280;5571;48.110;-1.706;2022-10-16T06:23:19;100768.66;;;14.85;100.00
11036;BME280;5571;48.110;-1.706;2022-10-16T06:25:44;100766.72;;;14.87;100.00
11036;BME280;5571;48.110;-1.706;2022-10-16T06:28:10;100765.78;;;14.88;100.00
11036;BME280;5571;48.110;-1.706;2022-10-16T06:30:35;100771.81;;;14.90;100.00
11036;BME280;5571;48.110;-1.706;2022-10-16T06:33:00;100776.25;;;14.89;100.00
11036;BME280;5571;48.110;-1.706;2022-10-16T06:35:26;100777.13;;;14.90;100.00
11036;BME280;5571;48.110;-1.706;2022-10-16T06:37:52;100779.75;;;14.90;100.00
11036;BME280;5571;48.110;-1.706;2022-10-16T06:40:18;100789.41;;;14.91;100.00
11036;BME280;5571;48.110;-1.706;2022-10-16T06:42:43;100793.72;;;14.92;100.00
11036;BME280;5571;48.110;-1.706;2022-10-16T06:45:09;100792.88;;;14.91;100.00
11036;BME280;5571;48.110;-1.706;2022-10-16T06:47:34;100793.94;;;14.89;100.00
11036;BME280;5571;48.110;-1.706;2022-10-16T06:50:00;100802.94;;;14.86;100.00
11036;BME280;5571;48.110;-1.706;2022-10-16T06:52:27;100808.34;;;14.85;100.00
11036;BME280;5571;48.110;-1.706;2022-10-16T06:54:53;100818.16;;;14.83;100.00
11036;BME280;5571;48.110;-1.706;2022-10-16T06:57:18;100816.50;;;14.82;100.00
11036;BME280;5571;48.110;-1.706;2022-10-16T06:59:44;100807.91;;;14.78;100.00
11036;BME280;5571;48.110;-1.706;2022-10-16T07:02:09;100824.63;;;14.78;100.00
11036;BME280;5571;48.110;-1.706;2022-10-16T07:04:35;100818.41;;;14.79;100.00
11036;BME280;5571;48.110;-1.706;2022-10-16T07:07:01;100812.16;;;14.81;100.00
11036;BME280;5571;48.110;-1.706;2022-10-16T07:09:26;100816.38;;;14.83;100.00
11036;BME280;5571;48.110;-1.706;2022-10-16T07:11:52;100821.56;;;14.85;100.00
11036;BME280;5571;48.110;-1.706;2022-10-16T07:14:19;100819.03;;;14.83;100.00
11036;BME280;5571;48.110;-1.706;2022-10-16T07:16:45;100822.50;;;14.84;100.00
11036;BME280;5571;48.110;-1.706;2022-10-16T07:19:11;100825.06;;;14.85;100.00
11036;BME280;5571;48.110;-1.706;2022-10-16T07:21:38;100826.75;;;14.86;100.00
11036;BME280;5571;48.110;-1.706;2022-10-16T07:24:11;100831.94;;;14.88;100.00
11036;BME280;5571;48.110;-1.706;2022-10-16T07:26:38;100833.41;;;14.92;100.00
11036;BME280;5571;48.110;-1.706;2022-10-16T07:29:06;100832.44;;;14.93;100.00
11036;BME280;5571;48.110;-1.706;2022-10-16T07:31:31;100834.88;;;14.96;100.00
11036;BME280;5571;48.110;-1.706;2022-10-16T07:34:00;100839.22;;;14.97;100.00
11036;BME280;5571;48.110;-1.706;2022-10-16T07:36:26;100830.84;;;15.03;100.00
11036;BME280;5571;48.110;-1.706;2022-10-16T07:38:52;100825.25;;;15.07;100.00
11036;BME280;5571;48.110;-1.706;2022-10-16T07:41:19;100830.22;;;15.12;100.00
11036;BME280;5571;48.110;-1.706;2022-10-16T07:43:46;100831.16;;;15.11;100.00
11036;BME280;5571;48.110;-1.706;2022-10-16T07:46:12;100827.34;;;15.15;100.00
11036;BME280;5571;48.110;-1.706;2022-10-16T07:48:38;100844.28;;;15.12;100.00
11036;BME280;5571;48.110;-1.706;2022-10-16T07:51:05;100842.03;;;15.19;100.00
11036;BME280;5571;48.110;-1.706;2022-10-16T07:53:31;100839.91;;;15.24;100.00
11036;BME280;5571;48.110;-1.706;2022-10-16T07:56:07;100842.34;;;15.27;100.00
11036;BME280;5571;48.110;-1.706;2022-10-16T07:58:34;100838.75;;;15.28;100.00
11036;BME280;5571;48.110;-1.706;2022-10-16T08:01:06;100833.22;;;15.31;100.00
11036;BME280;5571;48.110;-1.706;2022-10-16T08:03:33;100831.09;;;15.36;100.00
11036;BME280;5571;48.110;-1.706;2022-10-16T08:05:59;100824.19;;;15.46;100.00
11036;BME280;5571;48.110;-1.706;2022-10-16T08:08:25;100823.94;;;15.62;100.00
11036;BME280;5571;48.110;-1.706;2022-10-16T08:10:51;100841.00;;;15.82;100.00
11036;BME280;5571;48.110;-1.706;2022-10-16T08:13:17;100834.19;;;15.90;100.00
11036;BME280;5571;48.110;-1.706;2022-10-16T08:15:43;100836.16;;;15.99;100.00
11036;BME280;5571;48.110;-1.706;2022-10-16T08:18:09;100842.47;;;16.09;100.00
11036;BME280;5571;48.110;-1.706;2022-10-16T08:20:35;100846.81;;;16.10;100.00
11036;BME280;5571;48.110;-1.706;2022-10-16T08:23:00;100849.41;;;15.99;100.00
11036;BME280;5571;48.110;-1.706;2022-10-16T08:25:26;100860.97;;;15.98;100.00
11036;BME280;5571;48.110;-1.706;2022-10-16T08:27:52;100855.19;;;15.93;100.00
11036;BME280;5571;48.110;-1.706;2022-10-16T08:30:18;100859.63;;;15.93;100.00
11036;BME280;5571;48.110;-1.706;2022-10-16T08:32:44;100849.25;;;15.90;100.00
11036;BME280;5571;48.110;-1.706;2022-10-16T08:35:10;100858.28;;;15.87;100.00
11036;BME280;5571;48.110;-1.706;2022-10-16T08:37:36;100855.88;;;15.84;100.00
11036;BME280;5571;48.110;-1.706;2022-10-16T08:40:01;100854.16;;;15.83;100.00
11036;BME280;5571;48.110;-1.706;2022-10-16T08:50:33;100838.78;;;15.88;100.00
11036;BME280;5571;48.110;-1.706;2022-10-16T08:53:03;100837.78;;;15.89;100.00
11036;BME280;5571;48.110;-1.706;2022-10-16T08:55:49;100843.00;;;15.91;100.00
11036;BME280;5571;48.110;-1.706;2022-10-16T08:58:27;100847.94;;;15.95;100.00
11036;BME280;5571;48.110;-1.706;2022-10-16T09:00:58;100840.09;;;15.94;100.00
11036;BME280;5571;48.110;-1.706;2022-10-16T09:03:40;100841.13;;;16.04;100.00
11036;BME280;5571;48.110;-1.706;2022-10-16T09:06:57;100836.22;;;16.10;100.00
11036;BME280;5571;48.110;-1.706;2022-10-16T09:12:00;100853.78;;;16.11;100.00
11036;BME280;5571;48.110;-1.706;2022-10-16T09:14:40;100855.38;;;16.14;100.00
11036;BME280;5571;48.110;-1.706;2022-10-16T09:22:40;100857.06;;;16.15;100.00
11036;BME280;5571;48.110;-1.706;2022-10-16T09:25:17;100839.97;;;16.19;100.00
11036;BME280;5571;48.110;-1.706;2022-10-16T09:27:47;100826.97;;;16.27;100.00
11036;BME280;5571;48.110;-1.706;2022-10-16T09:30:18;100842.66;;;16.30;100.00
11036;BME280;5571;48.110;-1.706;2022-10-16T09:32:47;100837.34;;;16.30;100.00
11036;BME280;5571;48.110;-1.706;2022-10-16T09:35:20;100831.69;;;16.35;100.00
11036;BME280;5571;48.110;-1.706;2022-10-16T09:37:48;100832.19;;;16.40;100.00
11036;BME280;5571;48.110;-1.706;2022-10-16T09:43:34;100814.00;;;16.46;100.00
11036;BME280;5571;48.110;-1.706;2022-10-16T09:46:07;100810.25;;;16.49;100.00
11036;BME280;5571;48.110;-1.706;2022-10-16T09:48:43;100822.31;;;16.53;100.00
11036;BME280;5571;48.110;-1.706;2022-10-16T09:53:55;100854.22;;;16.64;100.00
11036;BME280;5571;48.110;-1.706;2022-10-16T09:56:41;100851.56;;;16.64;100.00
11036;BME280;5571;48.110;-1.706;2022-10-16T09:59:13;100842.63;;;16.65;100.00
11036;BME280;5571;48.110;-1.706;2022-10-16T10:01:48;100844.09;;;16.69;100.00
11036;BME280;5571;48.110;-1.706;2022-10-16T10:04:16;100838.66;;;16.71;100.00
11036;BME280;5571;48.110;-1.706;2022-10-16T10:06:45;100848.06;;;16.64;100.00
11036;BME280;5571;48.110;-1.706;2022-10-16T10:09:56;100836.38;;;16.66;100.00
11036;BME280;5571;48.110;-1.706;2022-10-16T10:12:04;100846.75;;;16.69;100.00
11036;BME280;5571;48.110;-1.706;2022-10-16T10:17:30;100834.44;;;16.68;100.00
11036;BME280;5571;48.110;-1.706;2022-10-16T10:20:15;100831.06;;;16.66;100.00
11036;BME280;5571;48.110;-1.706;2022-10-16T10:22:42;100823.44;;;16.62;100.00
11036;BME280;5571;48.110;-1.706;2022-10-16T10:33:26;100832.50;;;16.59;100.00
11036;BME280;5571;48.110;-1.706;2022-10-16T10:39:08;100830.97;;;16.44;100.00
11036;BME280;5571;48.110;-1.706;2022-10-16T10:50:14;100821.25;;;16.09;100.00
11036;BME280;5571;48.110;-1.706;2022-10-16T10:53:12;100825.91;;;15.95;100.00
11036;BME280;5571;48.110;-1.706;2022-10-16T10:55:54;100845.09;;;15.75;100.00
11036;BME280;5571;48.110;-1.706;2022-10-16T11:01:50;100877.13;;;15.59;100.00
11036;BME280;5571;48.110;-1.706;2022-10-16T11:07:15;100864.66;;;15.48;100.00
11036;BME280;5571;48.110;-1.706;2022-10-16T11:09:52;100867.50;;;15.45;100.00
11036;BME280;5571;48.110;-1.706;2022-10-16T11:12:21;100870.28;;;15.44;100.00
11036;BME280;5571;48.110;-1.706;2022-10-16T11:15:14;100876.63;;;15.41;100.00
11036;BME280;5571;48.110;-1.706;2022-10-16T11:17:48;100863.63;;;15.38;100.00
11036;BME280;5571;48.110;-1.706;2022-10-16T11:22:56;100862.34;;;15.31;100.00
11036;BME280;5571;48.110;-1.706;2022-10-16T11:25:28;100869.47;;;15.31;100.00
11036;BME280;5571;48.110;-1.706;2022-10-16T11:28:01;100876.56;;;15.30;100.00
11036;BME280;5571;48.110;-1.706;2022-10-16T11:30:29;100861.53;;;15.31;100.00
11036;BME280;5571;48.110;-1.706;2022-10-16T11:33:30;100848.91;;;15.34;100.00
11036;BME280;5571;48.110;-1.706;2022-10-16T11:36:06;100824.94;;;15.36;100.00
11036;BME280;5571;48.110;-1.706;2022-10-16T11:38:52;100823.88;;;15.38;100.00
11036;BME280;5571;48.110;-1.706;2022-10-16T11:44:16;100816.66;;;15.40;100.00
11036;BME280;5571;48.110;-1.706;2022-10-16T11:49:41;100793.59;;;15.42;100.00
11036;BME280;5571;48.110;-1.706;2022-10-16T11:54:51;100775.66;;;15.46;100.00
11036;BME280;5571;48.110;-1.706;2022-10-16T11:57:22;100765.63;;;15.51;100.00
11036;BME280;5571;48.110;-1.706;2022-10-16T11:59:52;100761.16;;;15.51;100.00
11036;BME280;5571;48.110;-1.706;2022-10-16T12:02:43;100762.00;;;15.52;100.00
11036;BME280;5571;48.110;-1.706;2022-10-16T12:05:22;100765.63;;;15.51;100.00
11036;BME280;5571;48.110;-1.706;2022-10-16T12:10:30;100756.81;;;15.50;100.00
11036;BME280;5571;48.110;-1.706;2022-10-16T12:13:26;100750.56;;;15.51;100.00
11036;BME280;5571;48.110;-1.706;2022-10-16T12:15:47;100750.56;;;15.51;100.00
11036;BME280;5571;48.110;-1.706;2022-10-16T12:18:23;100749.28;;;15.57;100.00
11036;BME280;5571;48.110;-1.706;2022-10-16T12:20:59;100747.94;;;15.62;100.00
11036;BME280;5571;48.110;-1.706;2022-10-16T12:23:29;100741.72;;;15.63;100.00
11036;BME280;5571;48.110;-1.706;2022-10-16T12:25:57;100735.09;;;15.69;100.00
11036;BME280;5571;48.110;-1.706;2022-10-16T12:28:31;100722.47;;;15.73;100.00
11036;BME280;5571;48.110;-1.706;2022-10-16T12:31:01;100717.56;;;15.79;100.00
11036;BME280;5571;48.110;-1.706;2022-10-16T12:33:33;100720.94;;;15.81;100.00
11036;BME280;5571;48.110;-1.706;2022-10-16T12:36:02;100718.88;;;15.85;100.00
11036;BME280;5571;48.110;-1.706;2022-10-16T12:38:38;100717.81;;;15.87;100.00
11036;BME280;5571;48.110;-1.706;2022-10-16T12:41:10;100716.28;;;15.96;100.00
11036;BME280;5571;48.110;-1.706;2022-10-16T12:43:45;100719.19;;;16.04;100.00
11036;BME280;5571;48.110;-1.706;2022-10-16T12:48:42;100723.06;;;16.11;100.00
11036;BME280;5571;48.110;-1.706;2022-10-16T12:54:02;100709.91;;;16.21;100.00
11036;BME280;5571;48.110;-1.706;2022-10-16T13:10:05;100699.44;;;16.52;100.00
11036;BME280;5571;48.110;-1.706;2022-10-16T13:24:21;100712.25;;;16.81;100.00
11036;BME280;5571;48.110;-1.706;2022-10-16T13:29:33;100720.81;;;16.84;100.00
11036;BME280;5571;48.110;-1.706;2022-10-16T13:32:01;100713.06;;;16.92;100.00
11036;BME280;5571;48.110;-1.706;2022-10-16T13:34:32;100713.91;;;16.93;100.00
11036;BME280;5571;48.110;-1.706;2022-10-16T13:36:58;100710.31;;;16.94;100.00
11036;BME280;5571;48.110;-1.706;2022-10-16T13:39:30;100701.00;;;16.99;100.00
11036;BME280;5571;48.110;-1.706;2022-10-16T13:42:05;100703.03;;;17.07;100.00
11036;BME280;5571;48.110;-1.706;2022-10-16T13:44:40;100686.25;;;17.18;100.00
11036;BME280;5571;48.110;-1.706;2022-10-16T13:47:15;100693.56;;;17.25;100.00
11036;BME280;5571;48.110;-1.706;2022-10-16T13:49:41;100687.75;;;17.31;100.00
11036;BME280;5571;48.110;-1.706;2022-10-16T13:52:17;100688.06;;;17.38;100.00
11036;BME280;5571;48.110;-1.706;2022-10-16T13:54:43;100691.09;;;17.44;100.00
11036;BME280;5571;48.110;-1.706;2022-10-16T13:57:13;100680.94;;;17.50;100.00
11036;BME280;5571;48.110;-1.706;2022-10-16T13:59:38;100684.66;;;17.58;100.00
11036;BME280;5571;48.110;-1.706;2022-10-16T14:02:31;100675.66;;;17.70;100.00
11036;BME280;5571;48.110;-1.706;2022-10-16T14:05:01;100680.75;;;17.83;100.00
11036;BME280;5571;48.110;-1.706;2022-10-16T14:07:32;100672.72;;;17.94;100.00
11036;BME280;5571;48.110;-1.706;2022-10-16T14:10:03;100666.47;;;18.05;100.00
11036;BME280;5571;48.110;-1.706;2022-10-16T14:12:29;100656.75;;;18.15;100.00
11036;BME280;5571;48.110;-1.706;2022-10-16T14:14:55;100657.75;;;18.23;100.00
11036;BME280;5571;48.110;-1.706;2022-10-16T14:17:25;100654.28;;;18.32;100.00
11036;BME280;5571;48.110;-1.706;2022-10-16T14:19:54;100652.78;;;18.40;100.00
11036;BME280;5571;48.110;-1.706;2022-10-16T14:22:33;100656.16;;;18.42;100.00
11036;BME280;5571;48.110;-1.706;2022-10-16T14:25:00;100648.16;;;18.42;100.00
11036;BME280;5571;48.110;-1.706;2022-10-16T14:27:34;100643.69;;;18.42;100.00
11036;BME280;5571;48.110;-1.706;2022-10-16T14:30:21;100642.56;;;18.45;100.00
11036;BME280;5571;48.110;-1.706;2022-10-16T14:33:19;100637.13;;;18.46;100.00
11036;BME280;5571;48.110;-1.706;2022-10-16T14:35:45;100642.03;;;18.51;100.00
11036;BME280;5571;48.110;-1.706;2022-10-16T14:38:18;100647.13;;;18.54;100.00
11036;BME280;5571;48.110;-1.706;2022-10-16T14:40:47;100644.31;;;18.55;100.00